sensor_id;sensor_type;location;lat;lon;timestamp;pressure;altitude;pressure_sealevel;temperature;humidity
13734;BME280;43298;52.560;13.508;2023-06-22T00:01:59;101226.47;;;20.07;100.00
13734;BME280;43298;52.560;13.508;2023-06-22T00:04:25;101235.78;;;20.23;100.00
13734;BME280;43298;52.560;13.508;2023-06-22T00:06:51;101243.16;;;20.18;100.00
13734;BME280;43298;52.560;13.508;2023-06-22T00:09:16;101240.03;;;20.13;100.00
13734;BME280;43298;52.560;13.508;2023-06-22T00:11:42;101240.78;;;20.26;100.00
13734;BME280;43298;52.560;13.508;2023-06-22T00:14:08;101244.84;;;20.19;100.00
13734;BME280;43298;52.560;13.508;2023-06-22T00:16:34;101246.53;;;20.20;100.00
13734;BME280;43298;52.560;13.508;2023-06-22T00:19:00;101251.13;;;20.17;100.00
13734;BME280;43298;52.560;13.508;2023-06-22T00:21:27;101242.44;;;20.16;100.00
13734;BME280;43298;52.560;13.508;2023-06-22T00:23:53;101253.88;;;20.15;100.00
13734;BME280;43298;52.560;13.508;2023-06-22T00:26:20;101253.47;;;20.09;100.00
13734;BME280;43298;52.560;13.508;2023-06-22T00:28:46;101259.50;;;20.11;100.00
13734;BME280;43298;52.560;13.508;2023-06-22T00:31:12;101253.09;;;20.02;100.00
13734;BME280;43298;52.560;13.508;2023-06-22T00:33:38;101273.34;;;20.00;100.00
13734;BME280;43298;52.560;13.508;2023-06-22T00:36:05;101269.47;;;19.93;100.00
13734;BME280;43298;52.560;13.508;2023-06-22T00:38:31;101257.97;;;19.83;100.00
13734;BME280;43298;52.560;13.508;2023-06-22T00:40:57;101259.88;;;19.81;100.00
13734;BME280;43298;52.560;13.508;2023-06-22T00:43:23;101264.94;;;19.72;100.00
13734;BME280;43298;52.560;13.508;2023-06-22T00:45:49;101264.53;;;19.65;100.00
13734;BME280;43298;52.560;13.508;2023-06-22T00:48:15;101267.25;;;19.64;100.00
13734;BME280;43298;52.560;13.508;2023-06-22T00:50:41;101267.16;;;19.53;100.00
13734;BME280;43298;52.560;13.508;2023-06-22T00:53:08;101269.06;;;19.51;100.00
13734;BME280;43298;52.560;13.508;2023-06-22T00:55:44;101270.63;;;19.53;100.00
13734;BME280;43298;52.560;13.508;2023-06-22T00:58:17;101269.38;;;19.46;100.00
13734;BME280;43298;52.560;13.508;2023-06-22T01:00:47;101256.91;;;19.37;100.00
13734;BME280;43298;52.560;13.508;2023-06-22T01:03:13;101261.53;;;19.34;100.00
13734;BME280;43298;52.560;13.508;2023-06-22T01:05:40;101269.91;;;19.26;100.00
13734;BME280;43298;52.560;13.508;2023-06-22T01:11:55;101275.69;;;19.06;100.00
13734;BME280;43298;52.560;13.508;2023-06-22T01:14:04;101272.84;;;18.97;100.00
13734;BME280;43298;52.560;13.508;2023-06-22T01:16:35;101272.41;;;18.90;100.00
13734;BME280;43298;52.560;13.508;2023-06-22T01:21:55;101275.66;;;18.81;100.00
13734;BME280;43298;52.560;13.508;2023-06-22T01:24:40;101273.25;;;18.78;100.00
13734;BME280;43298;52.560;13.508;2023-06-22T01:29:51;101274.78;;;18.68;100.00
13734;BME280;43298;52.560;13.508;2023-06-22T01:32:18;101263.88;;;18.62;100.00
13734;BME280;43298;52.560;13.508;2023-06-22T01:34:46;101269.03;;;18.63;100.00
13734;BME280;43298;52.560;13.508;2023-06-22T01:37:14;101269.22;;;18.60;100.00
13734;BME280;43298;52.560;13.508;2023-06-22T01:39:41;101279.91;;;18.57;100.00
13734;BME280;43298;52.560;13.508;2023-06-22T01:42:07;101273.91;;;18.55;100.00
13734;BME280;43298;52.560;13.508;2023-06-22T01:44:34;101280.19;;;18.53;100.00
13734;BME280;43298;52.560;13.508;2023-06-22T01:47:00;101287.53;;;18.48;100.00
13734;BME280;43298;52.560;13.508;2023-06-22T01:49:26;101284.63;;;18.52;100.00
13734;BME280;43298;52.560;13.508;2023-06-22T01:51:52;101282.53;;;18.57;100.00
13734;BME280;43298;52.560;13.508;2023-06-22T01:54:19;101291.13;;;18.59;100.00
13734;BME280;43298;52.560;13.508;2023-06-22T01:56:45;101293.00;;;18.57;100.00
13734;BME280;43298;52.560;13.508;2023-06-22T01:59:36;101295.63;;;18.57;100.00
13734;BME280;43298;52.560;13.508;2023-06-22T02:02:09;101290.88;;;18.50;100.00
13734;BME280;43298;52.560;13.508;2023-06-22T02:04:56;101280.91;;;18.42;100.00
13734;BME280;43298;52.560;13.508;2023-06-22T02:07:23;101283.09;;;18.48;100.00
13734;BME280;43298;52.560;13.508;2023-06-22T02:09:55;101286.19;;;18.55;100.00
13734;BME280;43298;52.560;13.508;2023-06-22T02:12:24;101283.09;;;18.48;100.00
13734;BME280;43298;52.560;13.508;2023-06-22T02:14:51;101286.16;;;18.42;100.00
13734;BME280;43298;52.560;13.508;2023-06-22T02:17:18;101279.97;;;18.43;100.00
13734;BME280;43298;52.560;13.508;2023-06-22T02:19:44;101279.34;;;18.40;100.00
13734;BME280;43298;52.560;13.508;2023-06-22T02:22:14;101288.22;;;18.37;100.00
13734;BME280;43298;52.560;13.508;2023-06-22T02:24:47;101284.19;;;18.32;100.00
13734;BME280;43298;52.560;13.508;2023-06-22T02:27:23;101291.22;;;18.31;100.00
13734;BME280;43298;52.560;13.508;2023-06-22T02:29:52;101287.28;;;18.38;100.00
13734;BME280;43298;52.560;13.508;2023-06-22T02:32:22;101296.53;;;18.44;100.00
13734;BME280;43298;52.560;13.508;2023-06-22T02:34:53;101288.91;;;18.53;100.00
13734;BME280;43298;52.560;13.508;2023-06-22T02:37:29;101284.00;;;18.61;100.00
13734;BME280;43298;52.560;13.508;2023-06-22T02:40:01;101285.13;;;18.57;100.00
13734;BME280;43298;52.560;13.508;2023-06-22T02:42:32;101285.22;;;18.56;100.00
13734;BME280;43298;52.560;13.508;2023-06-22T02:44:58;101293.94;;;18.56;100.00
13734;BME280;43298;52.560;13.508;2023-06-22T02:47:25;101287.66;;;18.59;100.00
13734;BME280;43298;52.560;13.508;2023-06-22T02:49:51;101288.19;;;18.64;100.00
13734;BME280;43298;52.560;13.508;2023-06-22T02:52:17;101283.16;;;18.73;100.00
13734;BME280;43298;52.560;13.508;2023-06-22T02:54:42;101284.25;;;18.83;100.00
13734;BME280;43298;52.560;13.508;2023-06-22T02:57:10;101283.63;;;18.92;100.00
13734;BME280;43298;52.560;13.508;2023-06-22T02:59:41;101289.09;;;19.02;100.00
13734;BME280;43298;52.560;13.508;2023-06-22T03:02:08;101290.97;;;19.12;100.00
13734;BME280;43298;52.560;13.508;2023-06-22T03:04:35;101292.22;;;19.19;100.00
13734;BME280;43298;52.560;13.508;2023-06-22T03:07:01;101282.38;;;19.23;100.00
13734;BME280;43298;52.560;13.508;2023-06-22T03:09:30;101274.34;;;19.26;100.00
13734;BME280;43298;52.560;13.508;2023-06-22T03:11:57;101273.78;;;19.21;100.00
13734;BME280;43298;52.560;13.508;2023-06-22T03:14:22;101278.91;;;19.22;100.00
13734;BME280;43298;52.560;13.508;2023-06-22T03:16:48;101288.47;;;19.23;100.00
13734;BME280;43298;52.560;13.508;2023-06-22T03:19:14;101276.97;;;19.26;100.00
13734;BME280;43298;52.560;13.508;2023-06-22T03:21:40;101280.00;;;19.32;100.00
13734;BME280;43298;52.560;13.508;2023-06-22T03:24:06;101282.41;;;19.35;100.00
13734;BME280;43298;52.560;13.508;2023-06-22T03:26:33;101284.84;;;19.38;100.00
13734;BME280;43298;52.560;13.508;2023-06-22T03:29:00;101283.13;;;19.37;100.00
13734;BME280;43298;52.560;13.508;2023-06-22T03:31:26;101284.94;;;19.37;100.00
13734;BME280;43298;52.560;13.508;2023-06-22T03:33:52;101285.03;;;19.35;100.00
13734;BME280;43298;52.560;13.508;2023-06-22T03:36:18;101280.09;;;19.31;100.00
13734;BME280;43298;52.560;13.508;2023-06-22T03:38:49;101277.38;;;19.32;100.00
13734;BME280;43298;52.560;13.508;2023-06-22T03:41:15;101275.16;;;19.26;100.00
13734;BME280;43298;52.560;13.508;2023-06-22T03:43:41;101282.22;;;19.26;100.00
13734;BME280;43298;52.560;13.508;2023-06-22T03:46:07;101284.91;;;19.24;100.00
13734;BME280;43298;52.560;13.508;2023-06-22T03:48:33;101291.44;;;19.31;100.00
13734;BME280;43298;52.560;13.508;2023-06-22T03:51:00;101285.25;;;19.32;100.00
13734;BME280;43298;52.560;13.508;2023-06-22T03:53:27;101286.19;;;19.31;100.00
13734;BME280;43298;52.560;13.508;2023-06-22T03:55:53;101273.50;;;19.25;100.00
13734;BME280;43298;52.560;13.508;2023-06-22T03:58:20;101282.63;;;19.32;100.00
13734;BME280;43298;52.560;13.508;2023-06-22T04:00:48;101278.84;;;19.36;100.00
13734;BME280;43298;52.560;13.508;2023-06-22T04:03:14;101286.59;;;19.38;100.00
13734;BME280;43298;52.560;13.508;2023-06-22T04:05:41;101280.09;;;19.43;100.00
13734;BME280;43298;52.560;13.508;2023-06-22T04:08:08;101275.50;;;19.47;100.00
13734;BME280;43298;52.560;13.508;2023-06-22T04:10:34;101274.94;;;19.54;100.00
13734;BME280;43298;52.560;13.508;2023-06-22T04:13:00;101280.47;;;19.62;100.00
13734;BME280;43298;52.560;13.508;2023-06-22T04:15:26;101284.06;;;19.61;100.00
13734;BME280;43298;52.560;13.508;2023-06-22T04:17:54;101293.50;;;19.64;100.00
13734;BME280;43298;52.560;13.508;2023-06-22T04:20:23;101295.38;;;19.74;100.00
13734;BME280;43298;52.560;13.508;2023-06-22T04:22:56;101291.69;;;19.77;100.00
13734;BME280;43298;52.560;13.508;2023-06-22T04:25:25;101290.63;;;19.79;100.00
13734;BME280;43298;52.560;13.508;2023-06-22T04:27:54;101295.56;;;19.84;100.00
13734;BME280;43298;52.560;13.508;2023-06-22T04:30:23;101302.91;;;19.91;100.00
13734;BME280;43298;52.560;13.508;2023-06-22T04:32:50;101310.00;;;20.02;100.00
13734;BME280;43298;52.560;13.508;2023-06-22T04:35:23;101305.50;;;20.04;100.00
13734;BME280;43298;52.560;13.508;2023-06-22T04:37:51;101313.97;;;20.07;100.00
13734;BME280;43298;52.560;13.508;2023-06-22T04:40:22;101318.41;;;20.19;100.00
13734;BME280;43298;52.560;13.508;2023-06-22T04:42:49;101317.72;;;20.28;100.00
13734;BME280;43298;52.560;13.508;2023-06-22T04:45:20;101320.34;;;20.28;100.00
13734;BME280;43298;52.560;13.508;2023-06-22T04:47:47;101324.47;;;20.43;100.00
13734;BME280;43298;52.560;13.508;2023-06-22T04:50:13;101329.28;;;20.49;100.00
13734;BME280;43298;52.560;13.508;2023-06-22T04:52:40;101327.66;;;20.59;100.00
13734;BME280;43298;52.560;13.508;2023-06-22T04:55:08;101325.78;;;20.73;100.00
13734;BME280;43298;52.560;13.508;2023-06-22T04:57:35;101333.88;;;20.82;100.00
13734;BME280;43298;52.560;13.508;2023-06-22T05:00:02;101326.84;;;20.94;100.00
13734;BME280;43298;52.560;13.508;2023-06-22T05:02:42;101338.38;;;21.04;100.00
13734;BME280;43298;52.560;13.508;2023-06-22T05:05:09;101348.09;;;21.14;100.00
13734;BME280;43298;52.560;13.508;2023-06-22T05:07:41;101339.16;;;21.28;100.00
13734;BME280;43298;52.560;13.508;2023-06-22T05:10:10;101342.38;;;21.42;100.00
13734;BME280;43298;52.560;13.508;2023-06-22T05:12:39;101338.69;;;21.45;100.00
13734;BME280;43298;52.560;13.508;2023-06-22T05:15:08;101342.75;;;21.49;100.00
13734;BME280;43298;52.560;13.508;2023-06-22T05:17:36;101350.31;;;21.64;100.00
13734;BME280;43298;52.560;13.508;2023-06-22T05:20:04;101350.81;;;21.80;100.00
13734;BME280;43298;52.560;13.508;2023-06-22T05:22:33;101352.50;;;22.03;100.00
13734;BME280;43298;52.560;13.508;2023-06-22T05:25:00;101355.47;;;22.10;100.00
13734;BME280;43298;52.560;13.508;2023-06-22T05:27:27;101363.22;;;22.22;100.00
13734;BME280;43298;52.560;13.508;2023-06-22T05:29:54;101368.50;;;22.22;100.00
13734;BME280;43298;52.560;13.508;2023-06-22T05:32:24;101365.59;;;22.36;100.00
13734;BME280;43298;52.560;13.508;2023-06-22T05:34:51;101362.88;;;22.27;100.00
13734;BME280;43298;52.560;13.508;2023-06-22T05:37:21;101371.72;;;22.26;100.00
13734;BME280;43298;52.560;13.508;2023-06-22T05:39:48;101373.75;;;22.33;100.00
13734;BME280;43298;52.560;13.508;2023-06-22T05:42:15;101366.72;;;22.23;100.00
13734;BME280;43298;52.560;13.508;2023-06-22T05:44:43;101366.94;;;22.20;100.00
13734;BME280;43298;52.560;13.508;2023-06-22T05:47:09;101366.94;;;22.20;100.00
13734;BME280;43298;52.560;13.508;2023-06-22T05:49:35;101371.72;;;22.15;100.00
13734;BME280;43298;52.560;13.508;2023-06-22T05:52:00;101379.22;;;22.52;100.00
13734;BME280;43298;52.560;13.508;2023-06-22T05:54:29;101375.75;;;22.63;100.00
13734;BME280;43298;52.560;13.508;2023-06-22T05:56:55;101374.31;;;22.90;100.00
13734;BME280;43298;52.560;13.508;2023-06-22T05:59:21;101384.00;;;23.01;100.00
13734;BME280;43298;52.560;13.508;2023-06-22T06:01:47;101387.81;;;22.97;100.00
13734;BME280;43298;52.560;13.508;2023-06-22T06:04:19;101396.81;;;22.74;100.00
13734;BME280;43298;52.560;13.508;2023-06-22T06:06:45;101397.28;;;22.68;100.00
13734;BME280;43298;52.560;13.508;2023-06-22T06:09:15;101404.41;;;22.88;100.00
13734;BME280;43298;52.560;13.508;2023-06-22T06:11:41;101402.31;;;23.02;100.00
13734;BME280;43298;52.560;13.508;2023-06-22T06:14:08;101399.03;;;23.10;100.00
13734;BME280;43298;52.560;13.508;2023-06-22T06:16:33;101404.00;;;23.03;100.00
13734;BME280;43298;52.560;13.508;2023-06-22T06:18:59;101399.94;;;23.31;100.00
13734;BME280;43298;52.560;13.508;2023-06-22T06:21:25;101405.97;;;23.43;100.00
13734;BME280;43298;52.560;13.508;2023-06-22T06:23:51;101407.34;;;23.37;100.00
13734;BME280;43298;52.560;13.508;2023-06-22T06:26:18;101407.34;;;23.37;100.00
13734;BME280;43298;52.560;13.508;2023-06-22T06:28:55;101408.81;;;24.01;100.00
13734;BME280;43298;52.560;13.508;2023-06-22T06:31:21;101405.56;;;24.96;100.00
13734;BME280;43298;52.560;13.508;2023-06-22T06:33:48;101411.53;;;24.98;100.00
13734;BME280;43298;52.560;13.508;2023-06-22T06:36:15;101425.75;;;25.44;100.00
13734;BME280;43298;52.560;13.508;2023-06-22T06:38:42;101434.47;;;26.20;100.00
13734;BME280;43298;52.560;13.508;2023-06-22T06:41:07;101443.69;;;26.43;100.00
13734;BME280;43298;52.560;13.508;2023-06-22T06:43:33;101447.47;;;26.40;100.00
13734;BME280;43298;52.560;13.508;2023-06-22T06:45:59;101448.69;;;26.46;100.00
13734;BME280;43298;52.560;13.508;2023-06-22T06:48:25;101450.97;;;26.41;100.00
13734;BME280;43298;52.560;13.508;2023-06-22T06:50:50;101459.50;;;26.35;100.00
13734;BME280;43298;52.560;13.508;2023-06-22T06:53:16;101458.94;;;26.41;100.00
13734;BME280;43298;52.560;13.508;2023-06-22T06:55:42;101447.69;;;26.29;100.00
13734;BME280;43298;52.560;13.508;2023-06-22T06:58:11;101440.66;;;25.64;100.00
13734;BME280;43298;52.560;13.508;2023-06-22T07:00:39;101434.84;;;26.25;100.00
13734;BME280;43298;52.560;13.508;2023-06-22T07:03:05;101431.69;;;26.39;100.00
13734;BME280;43298;52.560;13.508;2023-06-22T07:05:32;101427.41;;;26.65;100.00
13734;BME280;43298;52.560;13.508;2023-06-22T07:07:58;101430.50;;;26.60;98.34
13734;BME280;43298;52.560;13.508;2023-06-22T07:10:24;101429.06;;;26.39;99.99
13734;BME280;43298;52.560;13.508;2023-06-22T07:12:50;101428.69;;;26.61;99.83
13734;BME280;43298;52.560;13.508;2023-06-22T07:15:16;101427.97;;;26.86;99.92
13734;BME280;43298;52.560;13.508;2023-06-22T07:17:42;101421.78;;;26.68;96.45
13734;BME280;43298;52.560;13.508;2023-06-22T07:20:08;101412.16;;;27.37;92.92
13734;BME280;43298;52.560;13.508;2023-06-22T07:22:36;101420.66;;;26.70;94.01
13734;BME280;43298;52.560;13.508;2023-06-22T07:25:03;101409.44;;;27.29;89.92
13734;BME280;43298;52.560;13.508;2023-06-22T07:28:06;101411.09;;;27.30;91.57
13734;BME280;43298;52.560;13.508;2023-06-22T07:30:33;101392.03;;;27.17;86.75
13734;BME280;43298;52.560;13.508;2023-06-22T07:32:59;101399.94;;;26.74;91.01
13734;BME280;43298;52.560;13.508;2023-06-22T07:35:30;101398.81;;;26.94;89.66
13734;BME280;43298;52.560;13.508;2023-06-22T07:37:56;101398.50;;;27.57;85.55
13734;BME280;43298;52.560;13.508;2023-06-22T07:40:22;101398.59;;;27.48;84.45
13734;BME280;43298;52.560;13.508;2023-06-22T07:42:48;101396.59;;;27.24;85.59
13734;BME280;43298;52.560;13.508;2023-06-22T07:45:14;101391.97;;;27.09;81.48
13734;BME280;43298;52.560;13.508;2023-06-22T07:47:40;101400.78;;;27.27;86.91
13734;BME280;43298;52.560;13.508;2023-06-22T07:50:06;101394.31;;;27.12;85.06
13734;BME280;43298;52.560;13.508;2023-06-22T07:52:32;101387.38;;;26.76;85.37
13734;BME280;43298;52.560;13.508;2023-06-22T07:54:58;101389.50;;;26.90;86.99
13734;BME280;43298;52.560;13.508;2023-06-22T07:57:24;101384.47;;;27.04;78.92
13734;BME280;43298;52.560;13.508;2023-06-22T08:00:00;101390.31;;;27.08;76.99
13734;BME280;43298;52.560;13.508;2023-06-22T08:02:26;101384.22;;;27.33;76.17
13734;BME280;43298;52.560;13.508;2023-06-22T08:04:53;100751.50;;;27.53;58.47
13734;BME280;43298;52.560;13.508;2023-06-22T08:07:22;101385.59;;;27.02;76.62
13734;BME280;43298;52.560;13.508;2023-06-22T08:09:50;101385.59;;;27.02;76.62
13734;BME280;43298;52.560;13.508;2023-06-22T08:12:17;101373.94;;;26.95;78.16
13734;BME280;43298;52.560;13.508;2023-06-22T08:14:45;101388.44;;;26.56;77.72
13734;BME280;43298;52.560;13.508;2023-06-22T08:17:13;101383.25;;;26.99;74.93
13734;BME280;43298;52.560;13.508;2023-06-22T08:19:40;101381.31;;;27.44;77.81
13734;BME280;43298;52.560;13.508;2023-06-22T08:22:07;101387.06;;;27.39;80.53
13734;BME280;43298;52.560;13.508;2023-06-22T08:24:33;101391.44;;;27.74;79.98
13734;BME280;43298;52.560;13.508;2023-06-22T08:27:00;101393.94;;;27.24;79.55
13734;BME280;43298;52.560;13.508;2023-06-22T08:29:27;101396.94;;;27.47;80.48
13734;BME280;43298;52.560;13.508;2023-06-22T08:31:54;101401.22;;;27.22;81.44
13734;BME280;43298;52.560;13.508;2023-06-22T08:34:20;101393.28;;;27.48;79.35
13734;BME280;43298;52.560;13.508;2023-06-22T08:36:53;101399.69;;;27.20;80.13
13734;BME280;43298;52.560;13.508;2023-06-22T08:39:21;101393.16;;;27.32;79.38
13734;BME280;43298;52.560;13.508;2023-06-22T08:41:48;101394.81;;;27.25;79.43
13734;BME280;43298;52.560;13.508;2023-06-22T08:44:16;101389.63;;;27.23;76.44
13734;BME280;43298;52.560;13.508;2023-06-22T08:46:43;101386.72;;;27.34;80.67
13734;BME280;43298;52.560;13.508;2023-06-22T08:49:10;101381.31;;;27.44;78.19
13734;BME280;43298;52.560;13.508;2023-06-22T08:51:36;101384.84;;;27.27;79.85
13734;BME280;43298;52.560;13.508;2023-06-22T08:54:02;101389.78;;;27.22;79.98
13734;BME280;43298;52.560;13.508;2023-06-22T08:56:28;101389.75;;;27.65;80.04
13734;BME280;43298;52.560;13.508;2023-06-22T08:58:54;101379.72;;;27.59;78.08
13734;BME280;43298;52.560;13.508;2023-06-22T09:01:20;101391.56;;;27.39;77.16
13734;BME280;43298;52.560;13.508;2023-06-22T09:03:46;101390.97;;;27.53;78.10
13734;BME280;43298;52.560;13.508;2023-06-22T09:06:20;101389.31;;;27.26;77.54
13734;BME280;43298;52.560;13.508;2023-06-22T09:08:47;101386.41;;;27.20;74.66
13734;BME280;43298;52.560;13.508;2023-06-22T09:11:13;101376.38;;;27.14;77.49
13734;BME280;43298;52.560;13.508;2023-06-22T09:13:39;101377.47;;;27.03;79.02
13734;BME280;43298;52.560;13.508;2023-06-22T09:16:05;101379.97;;;27.40;81.04
13734;BME280;43298;52.560;13.508;2023-06-22T09:18:33;101376.44;;;27.39;79.13
13734;BME280;43298;52.560;13.508;2023-06-22T09:20:59;101376.28;;;27.92;80.31
13734;BME280;43298;52.560;13.508;2023-06-22T09:23:25;101375.31;;;28.01;78.07
13734;BME280;43298;52.560;13.508;2023-06-22T09:25:51;101383.09;;;28.36;78.28
13734;BME280;43298;52.560;13.508;2023-06-22T09:28:17;101373.03;;;28.72;75.56
13734;BME280;43298;52.560;13.508;2023-06-22T09:30:43;101370.03;;;28.67;73.97
13734;BME280;43298;52.560;13.508;2023-06-22T09:33:10;101369.56;;;28.71;73.59
13734;BME280;43298;52.560;13.508;2023-06-22T09:35:37;101367.91;;;28.78;74.38
13734;BME280;43298;52.560;13.508;2023-06-22T09:38:04;101364.63;;;28.42;70.11
13734;BME280;43298;52.560;13.508;2023-06-22T09:40:31;101373.72;;;28.24;74.57
13734;BME280;43298;52.560;13.508;2023-06-22T09:43:02;101365.66;;;28.41;75.15
13734;BME280;43298;52.560;13.508;2023-06-22T09:45:29;101362.28;;;28.23;74.46
13734;BME280;43298;52.560;13.508;2023-06-22T09:47:58;101358.94;;;29.03;70.69
13734;BME280;43298;52.560;13.508;2023-06-22T09:50:24;101364.25;;;29.11;67.72
13734;BME280;43298;52.560;13.508;2023-06-22T09:52:50;101354.44;;;29.04;63.23
13734;BME280;43298;52.560;13.508;2023-06-22T09:55:21;101362.53;;;28.46;59.33
13734;BME280;43298;52.560;13.508;2023-06-22T09:57:47;101361.03;;;28.59;66.88
13734;BME280;43298;52.560;13.508;2023-06-22T10:00:15;101356.59;;;29.16;66.43
13734;BME280;43298;52.560;13.508;2023-06-22T10:02:42;101366.38;;;29.40;63.81
13734;BME280;43298;52.560;13.508;2023-06-22T10:05:08;101357.41;;;29.41;60.79
13734;BME280;43298;52.560;13.508;2023-06-22T10:07:34;101368.19;;;29.47;64.99
13734;BME280;43298;52.560;13.508;2023-06-22T10:10:00;101377.31;;;29.69;63.76
13734;BME280;43298;52.560;13.508;2023-06-22T10:12:27;101370.50;;;29.74;62.35
13734;BME280;43298;52.560;13.508;2023-06-22T10:14:53;101370.75;;;29.09;60.94
13734;BME280;43298;52.560;13.508;2023-06-22T10:17:19;101369.84;;;28.60;63.06
13734;BME280;43298;52.560;13.508;2023-06-22T10:19:44;101364.75;;;29.07;64.44
13734;BME280;43298;52.560;13.508;2023-06-22T10:22:10;101363.38;;;28.87;62.17
13734;BME280;43298;52.560;13.508;2023-06-22T10:24:36;101366.09;;;29.03;63.95
13734;BME280;43298;52.560;13.508;2023-06-22T10:27:04;101364.44;;;29.10;62.61
13734;BME280;43298;52.560;13.508;2023-06-22T10:29:30;101364.22;;;28.71;63.33
13734;BME280;43298;52.560;13.508;2023-06-22T10:31:55;101356.22;;;28.63;65.18
13734;BME280;43298;52.560;13.508;2023-06-22T10:34:21;101348.75;;;28.99;64.90
13734;BME280;43298;52.560;13.508;2023-06-22T10:36:47;101348.56;;;29.32;65.00
13734;BME280;43298;52.560;13.508;2023-06-22T10:39:14;101341.03;;;29.52;64.20
13734;BME280;43298;52.560;13.508;2023-06-22T10:41:40;101342.84;;;29.51;65.04
13734;BME280;43298;52.560;13.508;2023-06-22T10:44:06;101343.91;;;29.89;66.08
13734;BME280;43298;52.560;13.508;2023-06-22T10:46:32;101338.34;;;30.06;63.35
13734;BME280;43298;52.560;13.508;2023-06-22T10:48:58;101340.47;;;30.41;63.52
13734;BME280;43298;52.560;13.508;2023-06-22T10:51:27;101338.75;;;30.48;63.07
13734;BME280;43298;52.560;13.508;2023-06-22T10:53:53;101331.16;;;30.37;59.57
13734;BME280;43298;52.560;13.508;2023-06-22T10:56:19;101322.50;;;31.03;59.26
13734;BME280;43298;52.560;13.508;2023-06-22T10:58:45;101330.13;;;30.46;59.06
13734;BME280;43298;52.560;13.508;2023-06-22T11:01:11;101325.38;;;30.79;59.10
13734;BME280;43298;52.560;13.508;2023-06-22T11:03:38;101313.78;;;30.86;57.68
13734;BME280;43298;52.560;13.508;2023-06-22T11:06:04;101304.53;;;30.52;60.66
13734;BME280;43298;52.560;13.508;2023-06-22T11:08:31;101307.31;;;30.58;59.96
13734;BME280;43298;52.560;13.508;2023-06-22T11:10:58;101309.34;;;29.57;61.89
13734;BME280;43298;52.560;13.508;2023-06-22T11:13:25;101302.41;;;29.40;61.15
13734;BME280;43298;52.560;13.508;2023-06-22T11:15:51;101307.75;;;29.86;62.38
13734;BME280;43298;52.560;13.508;2023-06-22T11:18:18;101303.91;;;29.89;60.67
13734;BME280;43298;52.560;13.508;2023-06-22T11:20:45;101306.53;;;29.97;59.58
13734;BME280;43298;52.560;13.508;2023-06-22T11:23:14;101310.66;;;30.38;59.16
13734;BME280;43298;52.560;13.508;2023-06-22T11:25:41;101303.91;;;29.42;60.65
13734;BME280;43298;52.560;13.508;2023-06-22T11:28:09;101292.72;;;29.93;58.63
13734;BME280;43298;52.560;13.508;2023-06-22T11:30:36;101292.78;;;30.16;59.38
13734;BME280;43298;52.560;13.508;2023-06-22T11:33:03;101287.56;;;31.04;59.17
13734;BME280;43298;52.560;13.508;2023-06-22T11:35:29;101288.81;;;30.34;60.12
13734;BME280;43298;52.560;13.508;2023-06-22T11:37:56;101285.94;;;30.13;59.96
13734;BME280;43298;52.560;13.508;2023-06-22T11:40:23;101277.25;;;30.42;60.48
13734;BME280;43298;52.560;13.508;2023-06-22T11:42:50;101287.22;;;30.70;57.27
13734;BME280;43298;52.560;13.508;2023-06-22T11:45:18;101287.94;;;29.26;59.04
13734;BME280;43298;52.560;13.508;2023-06-22T11:47:49;101291.59;;;30.18;59.88
13734;BME280;43298;52.560;13.508;2023-06-22T11:50:16;101299.25;;;29.36;62.22
13734;BME280;43298;52.560;13.508;2023-06-22T11:52:43;101298.50;;;29.74;60.12
13734;BME280;43298;52.560;13.508;2023-06-22T11:55:10;101287.09;;;29.80;59.64
13734;BME280;43298;52.560;13.508;2023-06-22T11:57:38;101289.75;;;30.41;61.41
13734;BME280;43298;52.560;13.508;2023-06-22T12:00:06;101293.63;;;30.84;61.27
13734;BME280;43298;52.560;13.508;2023-06-22T12:02:43;101291.72;;;30.25;59.38
13734;BME280;43298;52.560;13.508;2023-06-22T12:05:11;101289.81;;;30.33;58.27
13734;BME280;43298;52.560;13.508;2023-06-22T12:07:39;101290.94;;;30.08;58.59
13734;BME280;43298;52.560;13.508;2023-06-22T12:10:07;101289.44;;;29.83;59.19
13734;BME280;43298;52.560;13.508;2023-06-22T12:12:33;101284.78;;;29.77;58.55
13734;BME280;43298;52.560;13.508;2023-06-22T12:14:59;101281.72;;;29.88;60.36
13734;BME280;43298;52.560;13.508;2023-06-22T12:17:29;101286.97;;;30.04;59.72
13734;BME280;43298;52.560;13.508;2023-06-22T12:19:56;101278.66;;;30.75;59.12
13734;BME280;43298;52.560;13.508;2023-06-22T12:22:23;101268.38;;;30.86;59.47
13734;BME280;43298;52.560;13.508;2023-06-22T12:24:50;101276.72;;;31.20;56.08
13734;BME280;43298;52.560;13.508;2023-06-22T12:27:17;101275.03;;;31.19;58.02
13734;BME280;43298;52.560;13.508;2023-06-22T12:29:47;101270.41;;;30.62;58.35
13734;BME280;43298;52.560;13.508;2023-06-22T12:32:14;101264.69;;;30.65;59.09
13734;BME280;43298;52.560;13.508;2023-06-22T12:34:43;101256.91;;;31.30;55.34
13734;BME280;43298;52.560;13.508;2023-06-22T12:37:11;101253.63;;;31.28;56.21
13734;BME280;43298;52.560;13.508;2023-06-22T12:39:40;101239.75;;;31.09;58.38
13734;BME280;43298;52.560;13.508;2023-06-22T12:42:07;101238.09;;;30.94;56.64
13734;BME280;43298;52.560;13.508;2023-06-22T12:44:37;101240.31;;;31.34;55.71
13734;BME280;43298;52.560;13.508;2023-06-22T12:47:04;101228.13;;;31.02;56.98